sensor_id;sensor_type;location;lat;lon;timestamp;P1;durP1;ratioP1;P2;durP2;ratioP2
19810;SDS011;10065;49.632;8.346;2022-12-17T00:01:54;25.10;;;10.07;;
19810;SDS011;10065;49.632;8.346;2022-12-17T00:04:40;26.90;;;10.47;;
19810;SDS011;10065;49.632;8.346;2022-12-17T00:07:26;26.43;;;10.67;;
19810;SDS011;10065;49.632;8.346;2022-12-17T00:10:11;27.27;;;10.60;;
19810;SDS011;10065;49.632;8.346;2022-12-17T00:12:56;25.27;;;11.50;;
19810;SDS011;10065;49.632;8.346;2022-12-17T00:15:54;28.53;;;10.60;;
19810;SDS011;10065;49.632;8.346;2022-12-17T00:18:40;23.80;;;9.70;;
19810;SDS011;10065;49.632;8.346;2022-12-17T00:21:25;22.43;;;10.07;;
19810;SDS011;10065;49.632;8.346;2022-12-17T00:24:10;21.00;;;8.90;;
19810;SDS011;10065;49.632;8.346;2022-12-17T00:26:56;25.57;;;10.57;;
19810;SDS011;10065;49.632;8.346;2022-12-17T00:29:41;20.20;;;9.20;;
19810;SDS011;10065;49.632;8.346;2022-12-17T00:32:28;22.90;;;8.53;;
19810;SDS011;10065;49.632;8.346;2022-12-17T00:35:13;18.90;;;8.10;;
19810;SDS011;10065;49.632;8.346;2022-12-17T00:37:59;18.63;;;7.43;;
19810;SDS011;10065;49.632;8.346;2022-12-17T00:40:49;20.57;;;9.03;;
19810;SDS011;10065;49.632;8.346;2022-12-17T00:43:34;20.37;;;8.93;;
19810;SDS011;10065;49.632;8.346;2022-12-17T00:46:22;19.73;;;8.07;;
19810;SDS011;10065;49.632;8.346;2022-12-17T00:49:09;21.07;;;8.50;;
19810;SDS011;10065;49.632;8.346;2022-12-17T00:51:54;22.13;;;8.33;;
19810;SDS011;10065;49.632;8.346;2022-12-17T00:54:39;18.93;;;8.37;;
19810;SDS011;10065;49.632;8.346;2022-12-17T00:57:25;22.37;;;9.40;;
19810;SDS011;10065;49.632;8.346;2022-12-17T01:00:10;18.43;;;8.07;;
19810;SDS011;10065;49.632;8.346;2022-12-17T01:03:02;18.13;;;8.33;;
19810;SDS011;10065;49.632;8.346;2022-12-17T01:05:49;22.33;;;8.47;;
19810;SDS011;10065;49.632;8.346;2022-12-17T01:08:35;23.03;;;9.47;;
19810;SDS011;10065;49.632;8.346;2022-12-17T01:11:21;18.50;;;8.67;;
19810;SDS011;10065;49.632;8.346;2022-12-17T01:14:06;21.97;;;8.90;;
19810;SDS011;10065;49.632;8.346;2022-12-17T01:16:52;22.53;;;8.53;;
19810;SDS011;10065;49.632;8.346;2022-12-17T01:19:37;18.13;;;7.90;;
19810;SDS011;10065;49.632;8.346;2022-12-17T01:22:23;24.97;;;9.50;;
19810;SDS011;10065;49.632;8.346;2022-12-17T01:25:23;18.40;;;8.07;;
19810;SDS011;10065;49.632;8.346;2022-12-17T01:28:09;22.00;;;7.87;;
19810;SDS011;10065;49.632;8.346;2022-12-17T01:30:54;24.67;;;8.67;;
19810;SDS011;10065;49.632;8.346;2022-12-17T01:33:42;22.53;;;9.07;;
19810;SDS011;10065;49.632;8.346;2022-12-17T01:36:27;23.40;;;9.07;;
19810;SDS011;10065;49.632;8.346;2022-12-17T01:39:14;20.27;;;8.43;;
19810;SDS011;10065;49.632;8.346;2022-12-17T01:41:59;18.37;;;8.97;;
19810;SDS011;10065;49.632;8.346;2022-12-17T01:44:46;23.00;;;9.77;;
19810;SDS011;10065;49.632;8.346;2022-12-17T01:47:35;18.67;;;8.40;;
19810;SDS011;10065;49.632;8.346;2022-12-17T01:50:24;20.07;;;8.63;;
19810;SDS011;10065;49.632;8.346;2022-12-17T01:53:12;20.47;;;7.80;;
19810;SDS011;10065;49.632;8.346;2022-12-17T01:56:03;19.47;;;8.30;;
19810;SDS011;10065;49.632;8.346;2022-12-17T01:58:48;20.10;;;8.30;;
19810;SDS011;10065;49.632;8.346;2022-12-17T02:01:34;20.17;;;8.37;;
19810;SDS011;10065;49.632;8.346;2022-12-17T02:04:20;25.07;;;9.47;;
19810;SDS011;10065;49.632;8.346;2022-12-17T02:07:10;25.03;;;8.83;;
19810;SDS011;10065;49.632;8.346;2022-12-17T02:10:07;19.07;;;7.60;;
19810;SDS011;10065;49.632;8.346;2022-12-17T02:13:16;16.37;;;8.23;;
19810;SDS011;10065;49.632;8.346;2022-12-17T02:16:06;19.90;;;8.57;;
19810;SDS011;10065;49.632;8.346;2022-12-17T02:18:59;21.50;;;8.80;;
19810;SDS011;10065;49.632;8.346;2022-12-17T02:21:49;17.07;;;7.23;;
19810;SDS011;10065;49.632;8.346;2022-12-17T02:24:42;18.93;;;8.53;;
19810;SDS011;10065;49.632;8.346;2022-12-17T02:27:38;18.83;;;8.40;;
19810;SDS011;10065;49.632;8.346;2022-12-17T02:30:23;20.23;;;7.70;;
19810;SDS011;10065;49.632;8.346;2022-12-17T02:33:09;19.73;;;8.60;;
19810;SDS011;10065;49.632;8.346;2022-12-17T02:36:01;13.90;;;7.13;;
19810;SDS011;10065;49.632;8.346;2022-12-17T02:38:49;16.97;;;7.33;;
19810;SDS011;10065;49.632;8.346;2022-12-17T02:41:36;18.67;;;8.23;;
19810;SDS011;10065;49.632;8.346;2022-12-17T02:44:41;20.17;;;7.73;;
19810;SDS011;10065;49.632;8.346;2022-12-17T02:47:28;16.00;;;7.90;;
19810;SDS011;10065;49.632;8.346;2022-12-17T02:50:13;17.83;;;7.33;;
19810;SDS011;10065;49.632;8.346;2022-12-17T02:52:59;20.90;;;7.60;;
19810;SDS011;10065;49.632;8.346;2022-12-17T02:55:46;18.97;;;8.37;;
19810;SDS011;10065;49.632;8.346;2022-12-17T02:58:31;22.37;;;8.70;;
19810;SDS011;10065;49.632;8.346;2022-12-17T03:01:18;19.23;;;8.73;;
19810;SDS011;10065;49.632;8.346;2022-12-17T03:04:02;18.90;;;8.03;;
19810;SDS011;10065;49.632;8.346;2022-12-17T03:06:48;13.87;;;7.23;;
19810;SDS011;10065;49.632;8.346;2022-12-17T03:09:33;20.37;;;8.27;;
19810;SDS011;10065;49.632;8.346;2022-12-17T03:12:19;21.43;;;8.17;;
19810;SDS011;10065;49.632;8.346;2022-12-17T03:15:04;17.93;;;7.80;;
19810;SDS011;10065;49.632;8.346;2022-12-17T03:17:52;21.20;;;8.40;;
19810;SDS011;10065;49.632;8.346;2022-12-17T03:20:37;17.37;;;7.83;;
19810;SDS011;10065;49.632;8.346;2022-12-17T03:23:22;19.37;;;8.60;;
19810;SDS011;10065;49.632;8.346;2022-12-17T03:26:08;21.33;;;8.67;;
19810;SDS011;10065;49.632;8.346;2022-12-17T03:28:53;19.57;;;8.47;;
19810;SDS011;10065;49.632;8.346;2022-12-17T03:31:38;19.07;;;8.10;;
19810;SDS011;10065;49.632;8.346;2022-12-17T03:34:25;18.33;;;7.83;;
19810;SDS011;10065;49.632;8.346;2022-12-17T03:37:10;19.97;;;7.70;;
19810;SDS011;10065;49.632;8.346;2022-12-17T03:39:55;22.57;;;8.23;;
19810;SDS011;10065;49.632;8.346;2022-12-17T03:42:41;20.23;;;7.73;;
19810;SDS011;10065;49.632;8.346;2022-12-17T03:45:22;17.30;;;7.90;;
19810;SDS011;10065;49.632;8.346;2022-12-17T03:48:09;18.50;;;8.47;;
19810;SDS011;10065;49.632;8.346;2022-12-17T03:50:56;18.33;;;8.90;;
19810;SDS011;10065;49.632;8.346;2022-12-17T03:53:42;21.47;;;8.43;;
19810;SDS011;10065;49.632;8.346;2022-12-17T03:56:28;20.43;;;8.67;;
19810;SDS011;10065;49.632;8.346;2022-12-17T03:59:14;21.47;;;8.57;;
19810;SDS011;10065;49.632;8.346;2022-12-17T04:01:59;17.40;;;7.23;;
19810;SDS011;10065;49.632;8.346;2022-12-17T04:04:45;20.27;;;7.20;;
19810;SDS011;10065;49.632;8.346;2022-12-17T04:07:31;21.50;;;8.47;;
19810;SDS011;10065;49.632;8.346;2022-12-17T04:10:17;20.00;;;8.93;;
19810;SDS011;10065;49.632;8.346;2022-12-17T04:13:02;17.13;;;7.70;;
19810;SDS011;10065;49.632;8.346;2022-12-17T04:15:48;21.13;;;8.20;;
19810;SDS011;10065;49.632;8.346;2022-12-17T04:18:33;16.53;;;7.63;;
19810;SDS011;10065;49.632;8.346;2022-12-17T04:21:19;17.37;;;7.73;;
19810;SDS011;10065;49.632;8.346;2022-12-17T04:24:05;17.97;;;7.80;;
19810;SDS011;10065;49.632;8.346;2022-12-17T04:26:50;18.80;;;8.20;;
19810;SDS011;10065;49.632;8.346;2022-12-17T04:29:36;18.73;;;7.27;;
19810;SDS011;10065;49.632;8.346;2022-12-17T04:32:21;18.50;;;7.57;;
19810;SDS011;10065;49.632;8.346;2022-12-17T04:35:07;17.27;;;7.43;;
19810;SDS011;10065;49.632;8.346;2022-12-17T04:37:52;20.33;;;7.83;;
19810;SDS011;10065;49.632;8.346;2022-12-17T04:40:38;18.10;;;7.83;;
19810;SDS011;10065;49.632;8.346;2022-12-17T04:43:24;19.90;;;8.00;;
19810;SDS011;10065;49.632;8.346;2022-12-17T04:46:09;19.20;;;7.57;;
19810;SDS011;10065;49.632;8.346;2022-12-17T04:48:55;18.70;;;7.90;;
19810;SDS011;10065;49.632;8.346;2022-12-17T04:51:40;19.63;;;7.93;;
19810;SDS011;10065;49.632;8.346;2022-12-17T04:54:25;18.97;;;8.03;;
19810;SDS011;10065;49.632;8.346;2022-12-17T04:57:12;17.40;;;7.40;;
19810;SDS011;10065;49.632;8.346;2022-12-17T04:59:58;17.53;;;7.10;;
19810;SDS011;10065;49.632;8.346;2022-12-17T05:02:43;14.43;;;6.10;;
19810;SDS011;10065;49.632;8.346;2022-12-17T05:05:28;20.70;;;7.50;;
19810;SDS011;10065;49.632;8.346;2022-12-17T05:08:13;20.80;;;7.83;;
19810;SDS011;10065;49.632;8.346;2022-12-17T05:11:06;19.77;;;9.13;;
19810;SDS011;10065;49.632;8.346;2022-12-17T05:13:53;17.00;;;6.87;;
19810;SDS011;10065;49.632;8.346;2022-12-17T05:16:38;21.53;;;7.57;;
19810;SDS011;10065;49.632;8.346;2022-12-17T05:19:23;16.97;;;7.10;;
19810;SDS011;10065;49.632;8.346;2022-12-17T05:22:09;23.63;;;7.60;;
19810;SDS011;10065;49.632;8.346;2022-12-17T05:24:54;17.70;;;7.00;;
19810;SDS011;10065;49.632;8.346;2022-12-17T05:27:39;18.33;;;7.53;;
19810;SDS011;10065;49.632;8.346;2022-12-17T05:30:26;18.60;;;7.93;;
19810;SDS011;10065;49.632;8.346;2022-12-17T05:33:11;15.03;;;7.20;;
19810;SDS011;10065;49.632;8.346;2022-12-17T05:35:58;19.77;;;7.23;;
19810;SDS011;10065;49.632;8.346;2022-12-17T05:38:43;18.63;;;7.73;;
19810;SDS011;10065;49.632;8.346;2022-12-17T05:41:29;17.40;;;7.30;;
19810;SDS011;10065;49.632;8.346;2022-12-17T05:44:10;17.47;;;7.10;;
19810;SDS011;10065;49.632;8.346;2022-12-17T05:46:57;15.17;;;6.70;;
19810;SDS011;10065;49.632;8.346;2022-12-17T05:49:42;18.10;;;7.27;;
19810;SDS011;10065;49.632;8.346;2022-12-17T05:52:28;20.07;;;7.93;;
19810;SDS011;10065;49.632;8.346;2022-12-17T05:55:13;16.90;;;7.17;;
19810;SDS011;10065;49.632;8.346;2022-12-17T05:58:02;23.10;;;8.13;;
19810;SDS011;10065;49.632;8.346;2022-12-17T06:00:47;22.27;;;7.97;;
19810;SDS011;10065;49.632;8.346;2022-12-17T06:03:34;20.70;;;8.07;;
19810;SDS011;10065;49.632;8.346;2022-12-17T06:06:20;17.83;;;7.30;;
19810;SDS011;10065;49.632;8.346;2022-12-17T06:09:05;14.90;;;6.77;;
19810;SDS011;10065;49.632;8.346;2022-12-17T06:11:50;22.37;;;7.60;;
19810;SDS011;10065;49.632;8.346;2022-12-17T06:14:35;16.03;;;7.70;;
19810;SDS011;10065;49.632;8.346;2022-12-17T06:17:21;17.07;;;7.40;;
19810;SDS011;10065;49.632;8.346;2022-12-17T06:20:08;15.07;;;6.77;;
19810;SDS011;10065;49.632;8.346;2022-12-17T06:23:00;21.00;;;7.53;;
19810;SDS011;10065;49.632;8.346;2022-12-17T06:25:46;19.90;;;7.97;;
19810;SDS011;10065;49.632;8.346;2022-12-17T06:28:31;17.80;;;7.87;;
19810;SDS011;10065;49.632;8.346;2022-12-17T06:31:25;17.27;;;7.47;;
19810;SDS011;10065;49.632;8.346;2022-12-17T06:34:11;18.60;;;7.47;;
19810;SDS011;10065;49.632;8.346;2022-12-17T06:36:57;17.70;;;7.97;;
19810;SDS011;10065;49.632;8.346;2022-12-17T06:39:42;18.10;;;7.57;;
19810;SDS011;10065;49.632;8.346;2022-12-17T06:42:28;18.37;;;7.87;;
19810;SDS011;10065;49.632;8.346;2022-12-17T06:45:13;20.13;;;8.27;;
19810;SDS011;10065;49.632;8.346;2022-12-17T06:48:01;20.07;;;8.07;;
19810;SDS011;10065;49.632;8.346;2022-12-17T06:50:48;22.30;;;9.37;;
19810;SDS011;10065;49.632;8.346;2022-12-17T06:53:34;20.50;;;7.73;;
19810;SDS011;10065;49.632;8.346;2022-12-17T06:56:20;22.13;;;7.87;;
19810;SDS011;10065;49.632;8.346;2022-12-17T06:59:05;22.80;;;8.40;;
19810;SDS011;10065;49.632;8.346;2022-12-17T07:01:50;17.63;;;7.77;;
19810;SDS011;10065;49.632;8.346;2022-12-17T07:04:36;23.70;;;9.07;;
19810;SDS011;10065;49.632;8.346;2022-12-17T07:07:21;23.33;;;10.35;;
19810;SDS011;10065;49.632;8.346;2022-12-17T07:10:08;19.40;;;9.80;;
19810;SDS011;10065;49.632;8.346;2022-12-17T07:12:53;25.73;;;8.60;;
19810;SDS011;10065;49.632;8.346;2022-12-17T07:15:38;24.93;;;9.00;;
19810;SDS011;10065;49.632;8.346;2022-12-17T07:18:23;21.83;;;8.87;;
19810;SDS011;10065;49.632;8.346;2022-12-17T07:21:09;29.43;;;8.53;;
19810;SDS011;10065;49.632;8.346;2022-12-17T07:23:54;25.63;;;11.07;;
19810;SDS011;10065;49.632;8.346;2022-12-17T07:26:40;25.57;;;12.20;;
19810;SDS011;10065;49.632;8.346;2022-12-17T07:29:26;24.00;;;12.03;;
19810;SDS011;10065;49.632;8.346;2022-12-17T07:32:11;22.77;;;9.70;;
19810;SDS011;10065;49.632;8.346;2022-12-17T07:34:57;16.60;;;7.60;;
19810;SDS011;10065;49.632;8.346;2022-12-17T07:37:44;20.40;;;8.63;;
19810;SDS011;10065;49.632;8.346;2022-12-17T07:40:30;19.00;;;8.23;;
19810;SDS011;10065;49.632;8.346;2022-12-17T07:43:16;20.37;;;8.90;;
19810;SDS011;10065;49.632;8.346;2022-12-17T07:46:05;20.60;;;8.30;;
19810;SDS011;10065;49.632;8.346;2022-12-17T07:49:02;16.77;;;7.97;;
19810;SDS011;10065;49.632;8.346;2022-12-17T07:51:51;20.30;;;8.63;;
19810;SDS011;10065;49.632;8.346;2022-12-17T07:54:36;23.43;;;8.33;;
19810;SDS011;10065;49.632;8.346;2022-12-17T07:57:22;19.27;;;8.03;;
19810;SDS011;10065;49.632;8.346;2022-12-17T08:00:09;19.90;;;8.47;;
19810;SDS011;10065;49.632;8.346;2022-12-17T08:03:04;22.17;;;9.50;;
19810;SDS011;10065;49.632;8.346;2022-12-17T08:05:55;25.97;;;9.93;;
19810;SDS011;10065;49.632;8.346;2022-12-17T08:08:41;25.27;;;10.53;;
19810;SDS011;10065;49.632;8.346;2022-12-17T08:11:26;25.87;;;11.20;;
19810;SDS011;10065;49.632;8.346;2022-12-17T08:14:12;21.83;;;10.33;;
19810;SDS011;10065;49.632;8.346;2022-12-17T08:16:59;25.57;;;11.13;;
19810;SDS011;10065;49.632;8.346;2022-12-17T08:19:44;26.00;;;10.87;;
19810;SDS011;10065;49.632;8.346;2022-12-17T08:22:30;26.43;;;12.57;;
19810;SDS011;10065;49.632;8.346;2022-12-17T08:25:15;27.83;;;12.03;;
19810;SDS011;10065;49.632;8.346;2022-12-17T08:28:01;31.07;;;12.93;;
19810;SDS011;10065;49.632;8.346;2022-12-17T08:31:06;29.90;;;11.83;;
19810;SDS011;10065;49.632;8.346;2022-12-17T08:33:53;27.30;;;11.40;;
19810;SDS011;10065;49.632;8.346;2022-12-17T08:36:38;26.57;;;11.10;;
19810;SDS011;10065;49.632;8.346;2022-12-17T08:39:23;29.40;;;13.03;;
19810;SDS011;10065;49.632;8.346;2022-12-17T08:42:09;27.87;;;12.20;;
19810;SDS011;10065;49.632;8.346;2022-12-17T08:44:55;34.80;;;13.70;;
19810;SDS011;10065;49.632;8.346;2022-12-17T08:47:40;28.63;;;12.03;;
19810;SDS011;10065;49.632;8.346;2022-12-17T08:50:30;27.60;;;12.60;;
19810;SDS011;10065;49.632;8.346;2022-12-17T08:53:15;27.73;;;11.50;;
19810;SDS011;10065;49.632;8.346;2022-12-17T08:56:01;25.80;;;11.17;;
19810;SDS011;10065;49.632;8.346;2022-12-17T08:58:47;31.97;;;12.53;;
19810;SDS011;10065;49.632;8.346;2022-12-17T09:01:32;36.73;;;11.23;;
19810;SDS011;10065;49.632;8.346;2022-12-17T09:04:18;31.20;;;12.20;;
19810;SDS011;10065;49.632;8.346;2022-12-17T09:07:04;36.53;;;14.17;;
19810;SDS011;10065;49.632;8.346;2022-12-17T09:09:49;43.07;;;14.17;;
19810;SDS011;10065;49.632;8.346;2022-12-17T09:12:35;36.13;;;14.03;;
19810;SDS011;10065;49.632;8.346;2022-12-17T09:15:26;40.07;;;13.50;;
19810;SDS011;10065;49.632;8.346;2022-12-17T09:18:11;38.50;;;14.10;;
19810;SDS011;10065;49.632;8.346;2022-12-17T09:20:56;40.70;;;13.67;;
19810;SDS011;10065;49.632;8.346;2022-12-17T09:23:43;42.07;;;12.63;;
19810;SDS011;10065;49.632;8.346;2022-12-17T09:26:29;37.67;;;13.73;;
19810;SDS011;10065;49.632;8.346;2022-12-17T09:29:14;38.37;;;13.87;;
19810;SDS011;10065;49.632;8.346;2022-12-17T09:31:59;40.20;;;15.47;;
19810;SDS011;10065;49.632;8.346;2022-12-17T09:34:45;40.80;;;14.30;;
19810;SDS011;10065;49.632;8.346;2022-12-17T09:37:30;40.53;;;14.30;;
19810;SDS011;10065;49.632;8.346;2022-12-17T09:40:17;38.60;;;13.97;;
19810;SDS011;10065;49.632;8.346;2022-12-17T09:43:10;36.80;;;14.77;;
19810;SDS011;10065;49.632;8.346;2022-12-17T09:46:06;35.20;;;14.47;;
19810;SDS011;10065;49.632;8.346;2022-12-17T09:48:59;39.57;;;14.17;;
19810;SDS011;10065;49.632;8.346;2022-12-17T09:51:46;36.37;;;14.07;;
19810;SDS011;10065;49.632;8.346;2022-12-17T09:54:47;41.50;;;14.40;;
19810;SDS011;10065;49.632;8.346;2022-12-17T09:57:37;48.70;;;15.13;;
19810;SDS011;10065;49.632;8.346;2022-12-17T10:00:25;39.07;;;14.23;;
19810;SDS011;10065;49.632;8.346;2022-12-17T10:03:13;43.37;;;15.77;;
19810;SDS011;10065;49.632;8.346;2022-12-17T10:06:01;36.63;;;14.80;;
19810;SDS011;10065;49.632;8.346;2022-12-17T10:08:52;45.30;;;15.83;;
19810;SDS011;10065;49.632;8.346;2022-12-17T10:11:42;32.93;;;14.27;;
19810;SDS011;10065;49.632;8.346;2022-12-17T10:14:29;41.27;;;15.33;;
19810;SDS011;10065;49.632;8.346;2022-12-17T10:17:15;38.67;;;15.83;;
19810;SDS011;10065;49.632;8.346;2022-12-17T10:20:02;34.40;;;14.57;;
19810;SDS011;10065;49.632;8.346;2022-12-17T10:23:03;32.47;;;13.93;;
19810;SDS011;10065;49.632;8.346;2022-12-17T10:25:50;37.73;;;15.77;;
19810;SDS011;10065;49.632;8.346;2022-12-17T10:28:36;35.40;;;13.97;;
19810;SDS011;10065;49.632;8.346;2022-12-17T10:31:25;34.60;;;14.37;;
19810;SDS011;10065;49.632;8.346;2022-12-17T10:34:14;37.00;;;15.43;;
19810;SDS011;10065;49.632;8.346;2022-12-17T10:37:02;36.83;;;14.93;;
19810;SDS011;10065;49.632;8.346;2022-12-17T10:39:54;35.77;;;15.37;;
19810;SDS011;10065;49.632;8.346;2022-12-17T10:42:42;45.47;;;16.03;;
19810;SDS011;10065;49.632;8.346;2022-12-17T10:45:31;38.00;;;15.90;;
19810;SDS011;10065;49.632;8.346;2022-12-17T10:48:22;43.90;;;17.13;;
19810;SDS011;10065;49.632;8.346;2022-12-17T10:51:18;39.70;;;16.50;;
19810;SDS011;10065;49.632;8.346;2022-12-17T10:54:08;47.53;;;17.37;;
19810;SDS011;10065;49.632;8.346;2022-12-17T10:57:04;38.63;;;16.80;;
19810;SDS011;10065;49.632;8.346;2022-12-17T10:59:51;38.73;;;15.03;;
19810;SDS011;10065;49.632;8.346;2022-12-17T11:02:37;37.23;;;15.17;;
19810;SDS011;10065;49.632;8.346;2022-12-17T11:05:35;37.60;;;15.57;;
19810;SDS011;10065;49.632;8.346;2022-12-17T11:08:25;40.80;;;14.07;;
19810;SDS011;10065;49.632;8.346;2022-12-17T11:11:11;34.63;;;14.30;;
19810;SDS011;10065;49.632;8.346;2022-12-17T11:13:58;38.40;;;15.10;;
19810;SDS011;10065;49.632;8.346;2022-12-17T11:16:48;44.87;;;19.37;;
19810;SDS011;10065;49.632;8.346;2022-12-17T11:19:40;43.97;;;16.73;;
19810;SDS011;10065;49.632;8.346;2022-12-17T11:22:41;40.60;;;16.03;;
19810;SDS011;10065;49.632;8.346;2022-12-17T11:25:37;45.27;;;16.77;;
19810;SDS011;10065;49.632;8.346;2022-12-17T11:28:28;41.80;;;17.50;;
19810;SDS011;10065;49.632;8.346;2022-12-17T11:31:29;35.93;;;14.73;;
19810;SDS011;10065;49.632;8.346;2022-12-17T11:34:30;45.93;;;16.57;;
19810;SDS011;10065;49.632;8.346;2022-12-17T11:37:23;44.30;;;16.30;;
19810;SDS011;10065;49.632;8.346;2022-12-17T11:40:19;54.67;;;17.13;;
19810;SDS011;10065;49.632;8.346;2022-12-17T11:43:18;45.67;;;18.53;;
19810;SDS011;10065;49.632;8.346;2022-12-17T11:46:15;47.73;;;17.80;;
19810;SDS011;10065;49.632;8.346;2022-12-17T11:49:15;44.37;;;17.80;;
19810;SDS011;10065;49.632;8.346;2022-12-17T11:52:10;45.80;;;18.60;;
19810;SDS011;10065;49.632;8.346;2022-12-17T11:55:04;47.07;;;17.80;;
19810;SDS011;10065;49.632;8.346;2022-12-17T11:58:03;46.07;;;18.13;;
19810;SDS011;10065;49.632;8.346;2022-12-17T12:01:01;47.10;;;17.77;;
19810;SDS011;10065;49.632;8.346;2022-12-17T12:03:56;39.47;;;16.13;;
19810;SDS011;10065;49.632;8.346;2022-12-17T12:06:52;38.90;;;16.93;;
19810;SDS011;10065;49.632;8.346;2022-12-17T12:09:46;40.70;;;16.37;;
19810;SDS011;10065;49.632;8.346;2022-12-17T12:12:41;45.63;;;18.37;;
19810;SDS011;10065;49.632;8.346;2022-12-17T12:15:39;46.00;;;18.10;;
19810;SDS011;10065;49.632;8.346;2022-12-17T12:18:34;41.13;;;17.20;;
19810;SDS011;10065;49.632;8.346;2022-12-17T12:21:31;44.53;;;18.37;;
19810;SDS011;10065;49.632;8.346;2022-12-17T12:24:30;53.13;;;19.80;;
19810;SDS011;10065;49.632;8.346;2022-12-17T12:27:27;40.53;;;17.53;;
19810;SDS011;10065;49.632;8.346;2022-12-17T12:30:22;45.97;;;19.03;;
19810;SDS011;10065;49.632;8.346;2022-12-17T12:33:15;47.80;;;18.00;;
19810;SDS011;10065;49.632;8.346;2022-12-17T12:36:09;53.40;;;18.87;;
19810;SDS011;10065;49.632;8.346;2022-12-17T12:38:59;47.43;;;18.63;;
19810;SDS011;10065;49.632;8.346;2022-12-17T12:41:47;47.40;;;18.40;;
19810;SDS011;10065;49.632;8.346;2022-12-17T12:44:37;42.97;;;17.63;;
19810;SDS011;10065;49.632;8.346;2022-12-17T12:47:31;45.63;;;17.00;;
19810;SDS011;10065;49.632;8.346;2022-12-17T12:50:26;36.90;;;15.63;;
19810;SDS011;10065;49.632;8.346;2022-12-17T12:53:19;35.10;;;14.70;;
19810;SDS011;10065;49.632;8.346;2022-12-17T12:59:19;35.10;;;15.03;;
19810;SDS011;10065;49.632;8.346;2022-12-17T13:02:13;38.53;;;15.77;;
19810;SDS011;10065;49.632;8.346;2022-12-17T13:05:22;39.33;;;16.20;;
19810;SDS011;10065;49.632;8.346;2022-12-17T13:08:00;35.40;;;15.33;;
19810;SDS011;10065;49.632;8.346;2022-12-17T13:10:44;35.40;;;13.67;;
19810;SDS011;10065;49.632;8.346;2022-12-17T13:13:16;37.60;;;15.37;;
19810;SDS011;10065;49.632;8.346;2022-12-17T13:15:57;37.13;;;15.43;;
19810;SDS011;10065;49.632;8.346;2022-12-17T13:18:30;31.93;;;14.13;;
19810;SDS011;10065;49.632;8.346;2022-12-17T13:21:03;35.13;;;13.97;;
19810;SDS011;10065;49.632;8.346;2022-12-17T13:23:33;29.40;;;14.27;;
19810;SDS011;10065;49.632;8.346;2022-12-17T13:29:00;33.07;;;14.33;;
19810;SDS011;10065;49.632;8.346;2022-12-17T13:31:40;32.33;;;14.87;;
19810;SDS011;10065;49.632;8.346;2022-12-17T13:34:16;30.70;;;14.73;;
19810;SDS011;10065;49.632;8.346;2022-12-17T13:36:53;35.53;;;15.00;;
19810;SDS011;10065;49.632;8.346;2022-12-17T13:39:31;35.47;;;15.20;;
19810;SDS011;10065;49.632;8.346;2022-12-17T13:42:04;32.67;;;14.27;;
19810;SDS011;10065;49.632;8.346;2022-12-17T13:44:43;33.30;;;14.33;;
19810;SDS011;10065;49.632;8.346;2022-12-17T13:47:19;37.40;;;13.83;;
19810;SDS011;10065;49.632;8.346;2022-12-17T13:49:51;32.00;;;14.80;;
19810;SDS011;10065;49.632;8.346;2022-12-17T13:52:42;31.13;;;14.47;;
19810;SDS011;10065;49.632;8.346;2022-12-17T13:55:15;37.67;;;15.67;;
19810;SDS011;10065;49.632;8.346;2022-12-17T13:57:46;37.23;;;15.27;;
19810;SDS011;10065;49.632;8.346;2022-12-17T14:00:19;42.47;;;16.40;;
19810;SDS011;10065;49.632;8.346;2022-12-17T14:02:49;39.77;;;15.93;;
19810;SDS011;10065;49.632;8.346;2022-12-17T14:05:22;41.53;;;17.17;;
19810;SDS011;10065;49.632;8.346;2022-12-17T14:07:58;43.07;;;16.83;;
19810;SDS011;10065;49.632;8.346;2022-12-17T14:10:27;38.97;;;15.97;;
19810;SDS011;10065;49.632;8.346;2022-12-17T14:13:00;37.03;;;16.43;;
19810;SDS011;10065;49.632;8.346;2022-12-17T14:15:30;37.93;;;16.30;;
19810;SDS011;10065;49.632;8.346;2022-12-17T14:17:58;39.77;;;17.27;;
19810;SDS011;10065;49.632;8.346;2022-12-17T14:20:28;41.10;;;15.07;;
19810;SDS011;10065;49.632;8.346;2022-12-17T14:23:00;41.73;;;14.93;;
19810;SDS011;10065;49.632;8.346;2022-12-17T14:25:32;37.33;;;15.70;;
19810;SDS011;10065;49.632;8.346;2022-12-17T14:28:03;35.40;;;14.93;;
19810;SDS011;10065;49.632;8.346;2022-12-17T14:30:35;41.77;;;13.80;;
19810;SDS011;10065;49.632;8.346;2022-12-17T14:33:23;36.73;;;14.20;;
19810;SDS011;10065;49.632;8.346;2022-12-17T14:35:53;36.73;;;14.07;;
19810;SDS011;10065;49.632;8.346;2022-12-17T14:38:28;39.13;;;15.33;;
19810;SDS011;10065;49.632;8.346;2022-12-17T14:41:04;34.67;;;14.20;;
19810;SDS011;10065;49.632;8.346;2022-12-17T14:43:55;34.50;;;14.10;;
19810;SDS011;10065;49.632;8.346;2022-12-17T14:46:24;32.37;;;13.80;;
19810;SDS011;10065;49.632;8.346;2022-12-17T14:48:53;32.23;;;13.50;;
19810;SDS011;10065;49.632;8.346;2022-12-17T14:51:30;36.13;;;15.33;;
19810;SDS011;10065;49.632;8.346;2022-12-17T14:54:18;32.53;;;13.30;;
19810;SDS011;10065;49.632;8.346;2022-12-17T14:56:48;30.87;;;14.03;;
19810;SDS011;10065;49.632;8.346;2022-12-17T14:59:20;33.47;;;14.43;;
19810;SDS011;10065;49.632;8.346;2022-12-17T15:01:59;38.27;;;14.50;;
19810;SDS011;10065;49.632;8.346;2022-12-17T15:04:30;36.30;;;15.00;;
19810;SDS011;10065;49.632;8.346;2022-12-17T15:06:58;37.10;;;15.83;;
19810;SDS011;10065;49.632;8.346;2022-12-17T15:09:28;34.70;;;14.17;;
19810;SDS011;10065;49.632;8.346;2022-12-17T15:11:56;37.50;;;15.30;;
19810;SDS011;10065;49.632;8.346;2022-12-17T15:14:23;39.87;;;16.07;;
19810;SDS011;10065;49.632;8.346;2022-12-17T15:16:51;38.30;;;15.00;;
19810;SDS011;10065;49.632;8.346;2022-12-17T15:19:20;40.90;;;16.67;;
19810;SDS011;10065;49.632;8.346;2022-12-17T15:21:48;41.83;;;16.70;;
19810;SDS011;10065;49.632;8.346;2022-12-17T15:24:17;38.70;;;16.10;;
19810;SDS011;10065;49.632;8.346;2022-12-17T15:26:48;42.23;;;15.87;;
19810;SDS011;10065;49.632;8.346;2022-12-17T15:29:16;47.30;;;16.80;;
19810;SDS011;10065;49.632;8.346;2022-12-17T15:31:45;42.17;;;16.83;;
19810;SDS011;10065;49.632;8.346;2022-12-17T15:34:13;43.43;;;17.77;;
19810;SDS011;10065;49.632;8.346;2022-12-17T15:36:40;49.73;;;17.93;;
19810;SDS011;10065;49.632;8.346;2022-12-17T15:39:09;44.83;;;18.20;;
19810;SDS011;10065;49.632;8.346;2022-12-17T15:41:37;43.53;;;17.67;;
19810;SDS011;10065;49.632;8.346;2022-12-17T15:44:23;42.53;;;16.43;;
19810;SDS011;10065;49.632;8.346;2022-12-17T15:46:51;41.03;;;16.23;;
19810;SDS011;10065;49.632;8.346;2022-12-17T15:49:19;44.00;;;17.67;;
19810;SDS011;10065;49.632;8.346;2022-12-17T15:51:47;52.10;;;18.43;;
19810;SDS011;10065;49.632;8.346;2022-12-17T15:54:14;50.43;;;20.30;;
19810;SDS011;10065;49.632;8.346;2022-12-17T15:56:42;48.77;;;19.10;;
19810;SDS011;10065;49.632;8.346;2022-12-17T15:59:18;54.83;;;19.77;;
19810;SDS011;10065;49.632;8.346;2022-12-17T16:01:48;48.73;;;20.10;;
19810;SDS011;10065;49.632;8.346;2022-12-17T16:04:16;49.30;;;19.13;;
19810;SDS011;10065;49.632;8.346;2022-12-17T16:06:50;53.03;;;18.40;;
19810;SDS011;10065;49.632;8.346;2022-12-17T16:09:18;46.83;;;18.57;;
19810;SDS011;10065;49.632;8.346;2022-12-17T16:11:51;47.77;;;17.57;;
19810;SDS011;10065;49.632;8.346;2022-12-17T16:14:19;57.30;;;18.43;;
19810;SDS011;10065;49.632;8.346;2022-12-17T16:16:49;53.00;;;19.77;;
19810;SDS011;10065;49.632;8.346;2022-12-17T16:19:17;56.73;;;19.77;;